createdAt,value
2018-09-30T00:00:33.055Z,2.50
2018-09-30T00:01:43.247Z,2.60
2018-09-30T00:02:53.026Z,2.80
2018-09-30T00:04:02.974Z,3.52
2018-09-30T00:05:12.590Z,2.62
2018-09-30T00:06:22.053Z,2.62
2018-09-30T00:07:31.849Z,2.42
2018-09-30T00:08:41.549Z,3.05
2018-09-30T00:09:51.298Z,2.67
2018-09-30T00:11:00.899Z,2.20
2018-09-30T00:12:10.473Z,1.90
2018-09-30T00:13:20.025Z,2.17
2018-09-30T00:14:29.657Z,1.82
2018-09-30T00:15:39.198Z,1.60
2018-09-30T00:16:48.941Z,1.95
2018-09-30T00:17:58.368Z,2.10
2018-09-30T00:19:07.993Z,1.57
2018-09-30T00:20:17.540Z,1.47
2018-09-30T00:21:27.096Z,1.42
2018-09-30T00:22:36.887Z,1.40
2018-09-30T00:23:51.974Z,1.57
2018-09-30T00:25:06.995Z,1.27
2018-09-30T00:26:21.987Z,1.70
2018-09-30T00:27:31.750Z,1.77
2018-09-30T00:28:47.576Z,1.75
2018-09-30T00:29:57.332Z,1.20
2018-09-30T00:31:07.272Z,1.30
2018-09-30T00:32:16.921Z,2.33
2018-09-30T00:33:26.943Z,1.70
2018-09-30T00:34:36.612Z,1.25
2018-09-30T00:35:46.181Z,1.77
2018-09-30T00:36:58.042Z,1.72
2018-09-30T00:38:07.839Z,1.17
2018-09-30T00:39:17.477Z,1.35
2018-09-30T00:40:27.138Z,1.62
2018-09-30T00:41:36.804Z,1.10
2018-09-30T00:42:46.447Z,1.40
2018-09-30T00:43:56.339Z,1.12
2018-09-30T00:45:06.156Z,1.20
2018-09-30T00:46:15.905Z,1.20
2018-09-30T00:47:25.360Z,1.60
2018-09-30T00:48:35.427Z,1.40
2018-09-30T00:49:45.163Z,1.50
2018-09-30T00:50:54.936Z,1.45
2018-09-30T00:52:04.434Z,0.98
2018-09-30T00:53:14.139Z,1.20
2018-09-30T00:54:23.822Z,1.37
2018-09-30T00:55:33.525Z,1.85
2018-09-30T00:56:43.246Z,1.37
2018-09-30T00:57:52.952Z,1.80
2018-09-30T00:59:02.557Z,1.30
2018-09-30T01:00:12.247Z,1.85
2018-09-30T01:01:22.080Z,1.30
2018-09-30T01:02:31.701Z,1.35
2018-09-30T01:03:41.306Z,1.30
2018-09-30T01:04:51.060Z,1.60
2018-09-30T01:06:00.741Z,1.35
2018-09-30T01:07:10.495Z,1.42
2018-09-30T01:08:20.318Z,1.20
2018-09-30T01:09:29.889Z,1.22
2018-09-30T01:10:39.567Z,1.22
2018-09-30T01:11:49.647Z,1.45
2018-09-30T01:12:59.223Z,1.30
2018-09-30T01:14:08.982Z,1.20
2018-09-30T01:15:18.713Z,1.25
2018-09-30T01:16:28.589Z,1.75
2018-09-30T01:17:41.644Z,1.35
2018-09-30T01:18:51.186Z,1.37
2018-09-30T01:20:00.873Z,1.87
2018-09-30T01:21:10.561Z,1.50
2018-09-30T01:22:25.505Z,1.20
2018-09-30T01:23:35.381Z,1.67
2018-09-30T01:24:45.066Z,1.82
2018-09-30T01:25:54.526Z,1.30
2018-09-30T01:28:19.859Z,1.90
2018-09-30T01:29:29.438Z,1.45
2018-09-30T01:30:39.014Z,1.50
2018-09-30T01:31:48.926Z,1.17
2018-09-30T01:33:04.160Z,2.05
2018-09-30T01:34:13.585Z,1.92
2018-09-30T01:35:23.373Z,1.40
2018-09-30T01:36:33.088Z,1.60
2018-09-30T01:37:42.722Z,1.45
2018-09-30T01:38:52.470Z,1.85
2018-09-30T01:40:02.286Z,1.20
2018-09-30T01:41:11.904Z,1.15
2018-09-30T01:42:28.171Z,1.52
2018-09-30T01:43:41.574Z,1.52
2018-09-30T01:44:51.112Z,1.32
2018-09-30T01:46:00.600Z,1.95
2018-09-30T01:47:10.247Z,1.35
2018-09-30T01:48:24.415Z,1.50
2018-09-30T01:49:34.292Z,2.00
2018-09-30T01:50:43.920Z,1.72
2018-09-30T01:52:05.121Z,1.35
2018-09-30T01:53:15.406Z,2.20
2018-09-30T01:54:25.222Z,1.57
2018-09-30T01:55:35.249Z,1.55
2018-09-30T01:56:44.819Z,1.62
2018-09-30T01:57:54.582Z,1.70
2018-09-30T01:59:04.226Z,1.77
2018-09-30T02:00:13.878Z,1.75
2018-09-30T02:01:23.578Z,1.70
2018-09-30T02:02:33.116Z,1.60
2018-09-30T02:03:45.946Z,1.45
2018-09-30T02:04:55.701Z,1.25
2018-09-30T02:06:05.329Z,1.50
2018-09-30T02:07:15.031Z,1.25
2018-09-30T02:08:24.819Z,1.90
2018-09-30T02:09:37.685Z,1.85
2018-09-30T02:10:47.285Z,1.50
2018-09-30T02:11:57.089Z,1.70
2018-09-30T02:13:06.614Z,1.70
2018-09-30T02:14:16.340Z,1.40
2018-09-30T02:15:25.909Z,1.47
2018-09-30T02:16:35.607Z,1.00
2018-09-30T02:17:45.199Z,1.15
2018-09-30T02:18:54.792Z,1.55
2018-09-30T02:20:07.818Z,2.27
2018-09-30T02:21:17.622Z,1.55
2018-09-30T02:22:28.166Z,1.32
2018-09-30T02:23:37.918Z,1.60
2018-09-30T02:24:47.427Z,1.80
2018-09-30T02:26:00.382Z,1.55
2018-09-30T02:27:10.118Z,1.82
2018-09-30T02:28:19.809Z,1.22
2018-09-30T02:29:29.565Z,1.30
2018-09-30T02:30:42.945Z,1.42
2018-09-30T02:31:52.511Z,1.90
2018-09-30T02:33:01.989Z,1.70
2018-09-30T02:34:11.673Z,1.75
2018-09-30T02:35:21.326Z,1.20
2018-09-30T02:36:34.662Z,2.00
2018-09-30T02:37:44.395Z,1.40
2018-09-30T02:38:54.074Z,1.50
2018-09-30T02:40:03.470Z,1.35
2018-09-30T02:41:13.200Z,1.42
2018-09-30T02:42:22.780Z,1.30
2018-09-30T02:43:32.396Z,1.62
2018-09-30T02:44:42.187Z,2.12
2018-09-30T02:45:51.706Z,1.62
2018-09-30T02:47:04.852Z,1.40
2018-09-30T02:48:14.425Z,1.77
2018-09-30T02:49:24.074Z,1.50
2018-09-30T02:50:33.691Z,1.70
2018-09-30T02:51:43.540Z,1.37
2018-09-30T02:52:53.234Z,1.40
2018-09-30T02:54:02.932Z,1.50
2018-09-30T02:55:12.564Z,1.50
2018-09-30T02:56:22.157Z,1.50
2018-09-30T02:57:32.146Z,2.27
2018-09-30T02:58:41.797Z,2.05
2018-09-30T02:59:51.381Z,1.50
2018-09-30T03:01:01.245Z,1.62
2018-09-30T03:02:10.873Z,1.95
2018-09-30T03:03:20.409Z,1.60
2018-09-30T03:04:30.000Z,1.60
2018-09-30T03:05:39.507Z,2.02
2018-09-30T03:06:54.586Z,1.50
2018-09-30T03:08:09.502Z,1.60
2018-09-30T03:09:19.504Z,1.85
2018-09-30T03:10:29.261Z,1.72
2018-09-30T03:11:39.129Z,1.52
2018-09-30T03:12:48.738Z,1.92
2018-09-30T03:13:58.155Z,1.57
2018-09-30T03:15:07.696Z,2.25
2018-09-30T03:16:21.335Z,2.15
2018-09-30T03:17:31.236Z,1.80
2018-09-30T03:18:40.840Z,1.60
2018-09-30T03:19:50.593Z,2.10
2018-09-30T03:21:03.845Z,1.35
2018-09-30T03:22:13.464Z,2.00
2018-09-30T03:23:23.398Z,1.60
2018-09-30T03:24:32.988Z,1.77
2018-09-30T03:25:48.225Z,1.62
2018-09-30T03:26:58.014Z,1.57
2018-09-30T03:28:07.783Z,1.70
2018-09-30T03:29:17.429Z,2.05
2018-09-30T03:30:27.026Z,1.98
2018-09-30T03:31:36.896Z,2.00
2018-09-30T03:32:46.482Z,1.37
2018-09-30T03:33:56.417Z,1.20
2018-09-30T03:35:06.204Z,1.85
2018-09-30T03:36:15.729Z,1.95
2018-09-30T03:37:25.450Z,1.67
2018-09-30T03:38:35.438Z,2.15
2018-09-30T03:39:45.391Z,2.17
2018-09-30T03:40:55.146Z,1.52
2018-09-30T03:42:04.853Z,2.15
2018-09-30T03:43:14.562Z,1.75
2018-09-30T03:44:24.026Z,1.82
2018-09-30T03:45:33.731Z,1.47
2018-09-30T03:46:46.786Z,1.98
2018-09-30T03:47:56.690Z,1.45
2018-09-30T03:49:06.311Z,2.17
2018-09-30T03:50:15.941Z,1.52
2018-09-30T03:51:25.557Z,1.70
2018-09-30T03:52:40.649Z,1.85
2018-09-30T03:53:50.506Z,2.15
2018-09-30T03:55:00.247Z,1.60
2018-09-30T03:56:10.149Z,1.87
2018-09-30T03:57:23.351Z,2.00
2018-09-30T03:58:33.134Z,1.45
2018-09-30T03:59:42.820Z,1.82
2018-09-30T04:00:52.594Z,1.72
2018-09-30T04:02:02.385Z,1.30
2018-09-30T04:03:12.211Z,1.82
2018-09-30T04:04:21.873Z,1.80
2018-09-30T04:05:31.582Z,1.90
2018-09-30T04:06:41.260Z,1.90
2018-09-30T04:07:56.358Z,1.80
2018-09-30T04:09:07.690Z,1.98
2018-09-30T04:10:17.283Z,1.85
2018-09-30T04:11:27.049Z,2.27
2018-09-30T04:12:36.800Z,1.45
2018-09-30T04:13:50.414Z,1.85
2018-09-30T04:15:00.061Z,1.55
2018-09-30T04:16:09.753Z,1.80
2018-09-30T04:17:19.486Z,1.75
2018-09-30T04:18:29.235Z,2.00
2018-09-30T04:19:38.721Z,1.60
2018-09-30T04:20:48.607Z,1.50
2018-09-30T04:21:58.401Z,1.75
2018-09-30T04:23:08.110Z,1.60
2018-09-30T04:24:23.189Z,2.02
2018-09-30T04:25:33.038Z,1.60
2018-09-30T04:26:42.830Z,2.20
2018-09-30T04:27:52.468Z,1.70
2018-09-30T04:29:01.977Z,1.82
2018-09-30T04:30:15.600Z,2.22
2018-09-30T04:31:25.390Z,1.85
2018-09-30T04:32:34.999Z,1.50
2018-09-30T04:33:44.693Z,2.15
2018-09-30T04:34:54.185Z,1.87
2018-09-30T04:36:03.782Z,1.87
2018-09-30T04:37:13.481Z,1.65
2018-09-30T04:38:22.953Z,2.10
2018-09-30T04:39:32.772Z,2.20
2018-09-30T04:40:42.570Z,2.25
2018-09-30T04:41:52.242Z,2.17
2018-09-30T04:43:01.961Z,1.67
2018-09-30T04:44:11.647Z,1.72
2018-09-30T04:45:24.958Z,1.60
2018-09-30T04:46:34.618Z,1.92
2018-09-30T04:47:44.129Z,2.10
2018-09-30T04:48:53.920Z,1.75
2018-09-30T04:50:13.205Z,1.65
2018-09-30T04:51:22.682Z,2.20
2018-09-30T04:52:32.638Z,1.75
2018-09-30T04:53:42.597Z,1.57
2018-09-30T04:54:52.286Z,1.70
2018-09-30T04:56:01.902Z,1.70
2018-09-30T04:57:11.566Z,2.02
2018-09-30T04:58:21.076Z,2.05
2018-09-30T04:59:30.817Z,2.08
2018-09-30T05:00:40.667Z,2.20
2018-09-30T05:01:50.518Z,1.90
2018-09-30T05:03:00.290Z,2.12
2018-09-30T05:04:09.814Z,1.77
2018-09-30T05:05:19.536Z,1.92
2018-09-30T05:06:29.245Z,1.75
2018-09-30T05:07:38.714Z,1.98
2018-09-30T05:08:48.597Z,1.90
2018-09-30T05:09:58.224Z,1.85
2018-09-30T05:11:07.847Z,1.57
2018-09-30T05:12:17.722Z,1.70
2018-09-30T05:13:27.583Z,2.00
2018-09-30T05:14:37.368Z,2.05
2018-09-30T05:15:47.113Z,1.82
2018-09-30T05:16:56.917Z,1.92
2018-09-30T05:18:06.575Z,1.77
2018-09-30T05:19:16.362Z,2.15
2018-09-30T05:20:26.248Z,2.10
2018-09-30T05:21:35.859Z,2.20
2018-09-30T05:22:45.422Z,1.90
2018-09-30T05:23:55.019Z,1.35
2018-09-30T05:25:04.782Z,1.67
2018-09-30T05:26:15.074Z,1.67
2018-09-30T05:27:24.725Z,1.52
2018-09-30T05:28:34.685Z,1.47
2018-09-30T05:29:44.456Z,1.72
2018-09-30T05:30:54.300Z,2.37
2018-09-30T05:32:04.069Z,2.35
2018-09-30T05:33:14.004Z,1.90
2018-09-30T05:34:23.897Z,2.20
2018-09-30T05:35:33.744Z,2.17
2018-09-30T05:36:43.379Z,1.92
2018-09-30T05:37:53.062Z,2.40
2018-09-30T05:39:02.514Z,1.90
2018-09-30T05:40:12.334Z,1.70
2018-09-30T05:41:22.340Z,2.05
2018-09-30T05:42:32.811Z,1.82
2018-09-30T05:43:42.623Z,2.22
2018-09-30T05:44:52.320Z,1.62
2018-09-30T05:46:02.410Z,2.15
2018-09-30T05:47:12.204Z,2.58
2018-09-30T05:48:21.807Z,1.90
2018-09-30T05:49:31.407Z,2.20
2018-09-30T05:50:41.074Z,2.30
2018-09-30T05:51:50.870Z,2.15
2018-09-30T05:53:00.544Z,1.98
2018-09-30T05:54:10.238Z,1.80
2018-09-30T05:55:26.270Z,2.12
2018-09-30T05:56:35.680Z,2.00
2018-09-30T05:57:45.364Z,1.90
2018-09-30T05:58:55.376Z,2.55
2018-09-30T06:00:05.276Z,2.17
2018-09-30T06:01:15.089Z,2.25
2018-09-30T06:02:24.756Z,2.30
2018-09-30T06:03:34.333Z,2.50
2018-09-30T06:04:43.986Z,2.37
2018-09-30T06:05:57.225Z,2.35
2018-09-30T06:07:07.058Z,2.35
2018-09-30T06:08:16.946Z,1.70
2018-09-30T06:09:27.026Z,2.60
2018-09-30T06:10:36.771Z,2.45
2018-09-30T06:11:47.171Z,2.50
2018-09-30T06:12:56.633Z,1.87
2018-09-30T06:14:06.450Z,1.80
2018-09-30T06:15:15.979Z,2.08
2018-09-30T06:16:25.545Z,2.52
2018-09-30T06:17:35.240Z,1.72
2018-09-30T06:18:44.880Z,2.20
2018-09-30T06:19:54.434Z,2.60
2018-09-30T06:21:04.108Z,2.25
2018-09-30T06:22:17.028Z,2.40
2018-09-30T06:23:26.692Z,2.02
2018-09-30T06:24:36.329Z,2.22
2018-09-30T06:25:46.013Z,2.12
2018-09-30T06:26:55.652Z,2.00
2018-09-30T06:28:05.178Z,2.37
2018-09-30T06:29:14.790Z,2.00
2018-09-30T06:30:24.517Z,1.70
2018-09-30T06:31:34.021Z,2.72
2018-09-30T06:32:43.597Z,2.55
2018-09-30T06:33:53.344Z,2.58
2018-09-30T06:35:03.878Z,1.95
2018-09-30T06:36:13.698Z,2.75
2018-09-30T06:37:27.230Z,2.00
2018-09-30T06:38:36.922Z,2.45
2018-09-30T06:39:46.485Z,2.55
2018-09-30T06:40:56.139Z,2.83
2018-09-30T06:42:05.829Z,2.42
2018-09-30T06:43:15.439Z,2.00
2018-09-30T06:44:25.082Z,2.50
2018-09-30T06:45:34.753Z,1.90
2018-09-30T06:46:44.371Z,2.30
2018-09-30T06:47:54.046Z,2.30
2018-09-30T06:49:03.609Z,2.60
2018-09-30T06:50:13.120Z,2.55
2018-09-30T06:51:22.861Z,2.37
2018-09-30T06:52:32.748Z,3.00
2018-09-30T06:53:42.457Z,3.00
2018-09-30T06:54:52.154Z,2.60
2018-09-30T06:56:02.510Z,2.60
2018-09-30T06:57:12.021Z,2.83
2018-09-30T06:58:21.665Z,2.90
2018-09-30T06:59:31.307Z,3.15
2018-09-30T07:00:40.994Z,3.40
2018-09-30T07:01:50.628Z,3.87
2018-09-30T07:03:00.646Z,2.83
2018-09-30T07:04:10.392Z,3.02
2018-09-30T07:05:19.959Z,2.55
2018-09-30T07:06:29.844Z,2.90
2018-09-30T07:07:39.385Z,3.20
2018-09-30T07:08:49.057Z,3.10
2018-09-30T07:09:58.638Z,3.00
2018-09-30T07:11:08.235Z,2.92
2018-09-30T07:12:17.988Z,3.45
2018-09-30T07:13:27.714Z,2.60
2018-09-30T07:14:37.521Z,3.20
2018-09-30T07:15:47.042Z,2.80
2018-09-30T07:16:56.734Z,3.08
2018-09-30T07:18:06.214Z,2.90
2018-09-30T07:19:15.730Z,3.37
2018-09-30T07:20:25.255Z,3.40
2018-09-30T07:21:34.821Z,3.05
2018-09-30T07:22:44.341Z,3.45
2018-09-30T07:23:53.970Z,4.00
2018-09-30T07:25:03.572Z,4.40
2018-09-30T07:26:13.321Z,2.80
2018-09-30T07:27:23.082Z,3.20
2018-09-30T07:28:32.815Z,3.80
2018-09-30T07:29:42.630Z,4.15
2018-09-30T07:30:52.233Z,4.22
2018-09-30T07:32:01.843Z,3.25
2018-09-30T07:33:11.457Z,3.10
2018-09-30T07:34:21.208Z,3.15
2018-09-30T07:35:30.919Z,3.80
2018-09-30T07:36:40.605Z,3.27
2018-09-30T07:37:50.137Z,3.87
2018-09-30T07:38:59.825Z,3.08
2018-09-30T07:40:09.489Z,3.50
2018-09-30T07:41:19.351Z,3.70
2018-09-30T07:42:32.347Z,4.60
2018-09-30T07:43:41.913Z,3.87
2018-09-30T07:44:51.682Z,4.03
2018-09-30T07:46:01.296Z,3.65
2018-09-30T07:47:10.906Z,4.00
2018-09-30T07:48:20.654Z,4.28
2018-09-30T07:49:30.542Z,4.45
2018-09-30T07:50:39.973Z,3.85
2018-09-30T07:51:49.709Z,4.28
2018-09-30T07:53:03.062Z,4.97
2018-09-30T07:54:12.730Z,3.87
2018-09-30T07:55:22.477Z,4.20
2018-09-30T07:56:31.942Z,5.37
2018-09-30T07:57:41.778Z,4.72
2018-09-30T07:58:54.858Z,4.85
2018-09-30T08:00:05.637Z,5.03
2018-09-30T08:01:15.241Z,5.08
2018-09-30T08:02:25.080Z,5.83
2018-09-30T08:03:34.587Z,4.87
2018-09-30T08:04:44.313Z,4.65
2018-09-30T08:05:53.927Z,5.08
2018-09-30T08:07:03.523Z,5.40
2018-09-30T08:08:19.043Z,5.87
2018-09-30T08:09:28.790Z,5.97
2018-09-30T08:10:38.242Z,6.12
2018-09-30T08:11:47.868Z,5.28
2018-09-30T08:12:57.473Z,6.75
2018-09-30T08:14:07.045Z,6.90
2018-09-30T08:15:16.851Z,6.78
2018-09-30T08:16:26.972Z,6.42
2018-09-30T08:17:36.798Z,7.20
2018-09-30T08:18:46.613Z,6.60
2018-09-30T08:19:56.527Z,7.17
2018-09-30T08:21:06.432Z,6.30
2018-09-30T08:22:15.994Z,7.65
2018-09-30T08:23:25.662Z,6.87
2018-09-30T08:24:35.495Z,7.45
2018-09-30T08:25:45.032Z,6.40
2018-09-30T08:26:54.662Z,7.83
2018-09-30T08:28:04.350Z,8.15
2018-09-30T08:29:14.023Z,7.65
2018-09-30T08:30:23.451Z,6.72
2018-09-30T08:31:33.878Z,7.12
2018-09-30T08:32:51.997Z,8.65
2018-09-30T08:34:01.910Z,7.10
2018-09-30T08:35:11.642Z,7.78
2018-09-30T08:36:21.485Z,7.60
2018-09-30T08:38:34.603Z,8.85
2018-09-30T08:39:44.629Z,8.08
2018-09-30T08:40:59.444Z,8.83
2018-09-30T08:42:09.322Z,9.85
2018-09-30T08:43:18.987Z,8.75
2018-09-30T08:44:28.685Z,8.10
2018-09-30T08:45:38.398Z,8.90
2018-09-30T08:46:48.091Z,8.80
2018-09-30T08:47:57.955Z,8.60
2018-09-30T08:49:07.700Z,8.70
2018-09-30T08:50:17.516Z,9.38
2018-09-30T08:51:27.185Z,9.98
2018-09-30T08:52:36.951Z,8.43
2018-09-30T08:53:46.606Z,9.55
2018-09-30T08:54:56.276Z,11.05
2018-09-30T08:56:06.073Z,9.48
2018-09-30T08:57:15.747Z,10.85
2018-09-30T08:58:26.423Z,10.23
2018-09-30T08:59:35.904Z,9.78
2018-09-30T09:00:45.868Z,8.68
2018-09-30T09:01:55.630Z,10.23
2018-09-30T09:03:05.373Z,9.70
2018-09-30T09:04:15.105Z,11.18
2018-09-30T09:05:24.643Z,10.40
2018-09-30T09:06:34.263Z,10.65
2018-09-30T09:07:43.741Z,10.58
2018-09-30T09:08:53.500Z,10.32
2018-09-30T09:10:03.138Z,9.20
2018-09-30T09:11:12.788Z,11.10
2018-09-30T09:12:22.410Z,9.40
2018-09-30T09:13:37.507Z,12.18
2018-09-30T09:14:47.148Z,9.78
2018-09-30T09:15:57.033Z,11.25
2018-09-30T09:17:06.657Z,10.08
2018-09-30T09:18:16.427Z,9.60
2018-09-30T09:19:29.901Z,10.23
2018-09-30T09:20:39.488Z,10.18
2018-09-30T09:21:49.256Z,10.63
2018-09-30T09:22:58.873Z,11.78
2018-09-30T09:24:14.557Z,10.23
2018-09-30T09:25:24.247Z,10.35
2018-09-30T09:26:34.115Z,10.25
2018-09-30T09:27:43.759Z,12.78
2018-09-30T09:28:53.621Z,11.97
2018-09-30T09:30:03.209Z,11.90
2018-09-30T09:31:12.913Z,12.13
2018-09-30T09:32:22.546Z,12.30
2018-09-30T09:33:32.402Z,11.53
2018-09-30T09:34:45.693Z,10.65
2018-09-30T09:35:55.490Z,10.95
2018-09-30T09:37:04.924Z,11.28
2018-09-30T09:38:14.761Z,10.60
2018-09-30T09:40:43.731Z,10.85
2018-09-30T09:41:53.553Z,9.68
2018-09-30T09:43:03.403Z,10.30
2018-09-30T09:44:12.986Z,10.72
2018-09-30T09:45:22.641Z,10.43
2018-09-30T09:46:32.481Z,10.23
2018-09-30T09:47:41.958Z,11.10
2018-09-30T09:48:51.747Z,10.58
2018-09-30T09:50:01.694Z,11.35
2018-09-30T09:51:11.183Z,10.72
2018-09-30T09:52:20.710Z,9.73
2018-09-30T09:53:30.408Z,12.03
2018-09-30T09:54:40.063Z,10.72
2018-09-30T09:55:49.836Z,12.40
2018-09-30T09:56:59.732Z,11.38
2018-09-30T09:58:09.513Z,10.68
2018-09-30T09:59:19.238Z,10.63
2018-09-30T10:00:30.763Z,11.35
2018-09-30T10:01:40.645Z,11.83
2018-09-30T10:02:50.425Z,13.22
2018-09-30T10:04:00.030Z,10.05
2018-09-30T10:05:09.874Z,10.80
2018-09-30T10:06:19.565Z,9.88
2018-09-30T10:07:29.061Z,10.90
2018-09-30T10:08:38.845Z,9.98
2018-09-30T10:09:48.510Z,11.22
2018-09-30T10:10:58.138Z,10.80
2018-09-30T10:12:07.855Z,10.90
2018-09-30T10:13:17.570Z,11.80
2018-09-30T10:14:27.327Z,11.38
2018-09-30T10:15:37.081Z,11.15
2018-09-30T10:16:46.930Z,11.65
2018-09-30T10:17:56.729Z,11.33
2018-09-30T10:19:06.273Z,11.53
2018-09-30T10:20:15.952Z,10.20
2018-09-30T10:21:25.860Z,10.05
2018-09-30T10:22:35.410Z,10.55
2018-09-30T10:23:44.979Z,11.15
2018-09-30T10:24:54.487Z,11.12
2018-09-30T10:26:03.970Z,10.23
2018-09-30T10:27:13.866Z,11.88
2018-09-30T10:28:23.734Z,11.05
2018-09-30T10:29:33.339Z,11.80
2018-09-30T10:30:43.121Z,11.97
2018-09-30T10:31:52.758Z,12.33
2018-09-30T10:33:02.706Z,10.63
2018-09-30T10:34:12.520Z,10.98
2018-09-30T10:35:22.168Z,11.48
2018-09-30T10:36:32.168Z,10.85
2018-09-30T10:37:42.097Z,11.43
2018-09-30T10:38:51.778Z,12.58
2018-09-30T10:40:04.673Z,11.40
2018-09-30T10:41:14.377Z,12.50
2018-09-30T10:42:23.895Z,10.13
2018-09-30T10:43:33.519Z,10.72
2018-09-30T10:44:52.608Z,9.80
2018-09-30T10:46:02.183Z,11.55
2018-09-30T10:47:11.897Z,12.35
2018-09-30T10:48:21.498Z,10.08
2018-09-30T10:49:31.275Z,11.28
2018-09-30T10:50:44.800Z,9.95
2018-09-30T10:51:54.357Z,10.30
2018-09-30T10:53:04.070Z,11.12
2018-09-30T10:54:13.684Z,11.00
2018-09-30T10:55:27.188Z,11.30
2018-09-30T10:56:36.698Z,15.45
2018-09-30T10:57:46.626Z,12.40
2018-09-30T10:58:56.391Z,11.68
2018-09-30T11:00:19.652Z,10.98
2018-09-30T11:01:29.315Z,10.45
2018-09-30T11:02:38.971Z,10.82
2018-09-30T11:03:48.814Z,11.73
2018-09-30T11:04:58.633Z,10.80
2018-09-30T11:06:08.268Z,12.03
2018-09-30T11:07:17.932Z,11.53
2018-09-30T11:08:27.727Z,10.78
2018-09-30T11:09:37.539Z,9.85
2018-09-30T11:10:47.137Z,10.20
2018-09-30T11:11:56.751Z,10.35
2018-09-30T11:13:06.661Z,11.50
2018-09-30T11:14:16.133Z,12.35
2018-09-30T11:15:25.790Z,10.53
2018-09-30T11:16:35.491Z,10.63
2018-09-30T11:17:45.091Z,11.33
2018-09-30T11:18:54.904Z,10.75
2018-09-30T11:20:04.434Z,11.40
2018-09-30T11:21:18.522Z,9.98
2018-09-30T11:22:28.499Z,9.98
2018-09-30T11:23:41.902Z,10.40
2018-09-30T11:24:51.600Z,11.35
2018-09-30T11:26:01.126Z,12.03
2018-09-30T11:27:10.849Z,12.15
2018-09-30T11:28:24.210Z,12.18
2018-09-30T11:29:33.964Z,11.48
2018-09-30T11:30:43.582Z,10.38
2018-09-30T11:31:53.265Z,12.60
2018-09-30T11:33:08.437Z,10.30
2018-09-30T11:34:18.083Z,12.47
2018-09-30T11:35:27.942Z,10.55
2018-09-30T11:36:37.472Z,9.70
2018-09-30T11:37:47.263Z,10.10
2018-09-30T11:38:57.145Z,10.38
2018-09-30T11:40:07.272Z,11.15
2018-09-30T11:41:16.779Z,10.10
2018-09-30T11:42:35.066Z,11.22
2018-09-30T11:43:44.901Z,11.65
2018-09-30T11:44:54.597Z,13.45
2018-09-30T11:46:04.165Z,10.60
2018-09-30T11:47:14.038Z,11.63
2018-09-30T11:48:23.822Z,10.68
2018-09-30T11:49:33.683Z,10.88
2018-09-30T11:50:43.337Z,10.50
2018-09-30T11:51:52.899Z,11.00
2018-09-30T11:53:02.643Z,9.70
2018-09-30T11:54:12.393Z,11.48
2018-09-30T11:55:21.893Z,11.40
2018-09-30T11:56:32.037Z,10.50
2018-09-30T11:57:41.505Z,13.38
2018-09-30T11:58:51.122Z,9.38
2018-09-30T12:00:00.969Z,10.40
2018-09-30T12:01:10.664Z,10.10
2018-09-30T12:02:20.430Z,10.90
2018-09-30T12:03:29.981Z,11.00
2018-09-30T12:04:39.710Z,10.40
2018-09-30T12:05:49.478Z,10.88
2018-09-30T12:06:59.067Z,11.20
2018-09-30T12:08:08.729Z,11.50
2018-09-30T12:09:18.282Z,11.12
2018-09-30T12:10:27.878Z,11.15
2018-09-30T12:11:37.647Z,10.00
2018-09-30T12:12:47.436Z,10.25
2018-09-30T12:13:57.193Z,9.83
2018-09-30T12:15:06.846Z,10.25
2018-09-30T12:16:16.491Z,10.53
2018-09-30T12:17:26.330Z,10.50
2018-09-30T12:18:36.116Z,10.78
2018-09-30T12:21:03.993Z,17.12
2018-09-30T12:22:13.733Z,14.45
2018-09-30T12:23:23.436Z,12.10
2018-09-30T12:24:33.196Z,10.48
2018-09-30T12:25:43.034Z,10.08
2018-09-30T12:26:52.853Z,11.60
2018-09-30T12:28:02.705Z,9.18
2018-09-30T12:29:12.370Z,8.68
2018-09-30T12:30:21.871Z,10.50
2018-09-30T12:31:31.630Z,10.53
2018-09-30T12:32:41.285Z,10.80
2018-09-30T12:33:51.021Z,10.35
2018-09-30T12:35:00.710Z,9.78
2018-09-30T12:36:10.468Z,9.60
2018-09-30T12:37:20.027Z,10.43
2018-09-30T12:38:29.811Z,9.88
2018-09-30T12:39:39.434Z,9.90
2018-09-30T12:40:52.668Z,10.60
2018-09-30T12:42:02.569Z,11.48
2018-09-30T12:43:12.306Z,9.20
2018-09-30T12:44:21.817Z,10.18
2018-09-30T12:45:31.393Z,10.70
2018-09-30T12:46:41.083Z,9.75
2018-09-30T12:47:51.206Z,13.28
2018-09-30T12:49:00.956Z,10.40
2018-09-30T12:50:10.690Z,10.30
2018-09-30T12:51:20.286Z,9.88
2018-09-30T12:52:30.154Z,11.40
2018-09-30T12:53:39.951Z,9.85
2018-09-30T12:54:50.041Z,10.20
2018-09-30T12:55:59.788Z,9.80
2018-09-30T12:57:09.427Z,9.88
2018-09-30T12:58:19.194Z,9.73
2018-09-30T12:59:29.092Z,8.58
2018-09-30T13:00:38.972Z,10.32
2018-09-30T13:01:48.532Z,10.43
2018-09-30T13:02:58.225Z,10.15
2018-09-30T13:04:07.769Z,10.13
2018-09-30T13:05:17.776Z,9.00
2018-09-30T13:06:27.526Z,9.00
2018-09-30T13:07:37.311Z,9.30
2018-09-30T13:08:47.001Z,9.00
2018-09-30T13:09:56.610Z,7.60
2018-09-30T13:11:06.645Z,8.90
2018-09-30T13:12:16.517Z,8.55
2018-09-30T13:13:26.303Z,9.18
2018-09-30T13:14:36.103Z,10.08
2018-09-30T13:15:45.983Z,10.48
2018-09-30T13:16:55.594Z,10.55
2018-09-30T13:18:05.206Z,9.78
2018-09-30T13:19:14.801Z,7.80
2018-09-30T13:20:24.451Z,9.10
2018-09-30T13:21:34.144Z,8.65
2018-09-30T13:22:44.078Z,9.50
2018-09-30T13:23:53.962Z,8.80
2018-09-30T13:25:03.635Z,7.72
2018-09-30T13:26:13.694Z,9.25
2018-09-30T13:27:23.246Z,9.80
2018-09-30T13:28:33.064Z,9.40
2018-09-30T13:29:42.641Z,8.63
2018-09-30T13:30:52.488Z,8.95
2018-09-30T13:32:02.259Z,8.43
2018-09-30T13:33:12.220Z,9.15
2018-09-30T13:34:21.937Z,9.90
2018-09-30T13:35:31.881Z,9.08
2018-09-30T13:36:41.493Z,8.50
2018-09-30T13:37:51.295Z,8.18
2018-09-30T13:39:00.766Z,7.50
2018-09-30T13:40:10.337Z,8.08
2018-09-30T13:41:19.977Z,8.15
2018-09-30T13:42:29.505Z,8.88
2018-09-30T13:43:39.158Z,8.93
2018-09-30T13:44:48.870Z,8.05
2018-09-30T13:45:58.758Z,8.03
2018-09-30T13:47:08.443Z,7.90
2018-09-30T13:48:18.085Z,9.80
2018-09-30T13:49:28.002Z,8.50
2018-09-30T13:50:37.936Z,8.60
2018-09-30T13:51:47.717Z,9.13
2018-09-30T13:52:57.507Z,9.83
2018-09-30T13:54:07.110Z,8.78
2018-09-30T13:55:16.769Z,7.75
2018-09-30T13:56:26.451Z,8.60
2018-09-30T13:57:36.273Z,10.60
2018-09-30T13:58:45.777Z,8.68
2018-09-30T13:59:55.610Z,8.43
2018-09-30T14:01:05.194Z,10.30
2018-09-30T14:02:15.011Z,8.68
2018-09-30T14:03:24.718Z,8.48
2018-09-30T14:04:34.323Z,10.10
2018-09-30T14:05:43.998Z,9.48
2018-09-30T14:06:53.618Z,10.70
2018-09-30T14:08:03.123Z,9.75
2018-09-30T14:09:12.884Z,8.35
2018-09-30T14:10:22.560Z,8.23
2018-09-30T14:11:32.372Z,10.18
2018-09-30T14:12:41.989Z,8.35
2018-09-30T14:13:51.466Z,9.15
2018-09-30T14:15:01.064Z,9.33
2018-09-30T14:16:10.881Z,9.33
2018-09-30T14:17:20.827Z,8.68
2018-09-30T14:18:30.769Z,9.45
2018-09-30T14:19:40.377Z,9.15
2018-09-30T14:20:49.861Z,9.28
2018-09-30T14:21:59.555Z,9.43
2018-09-30T14:23:09.032Z,8.45
2018-09-30T14:24:18.439Z,9.53
2018-09-30T14:25:28.400Z,8.65
2018-09-30T14:26:38.138Z,8.75
2018-09-30T14:27:47.869Z,8.80
2018-09-30T14:28:57.812Z,7.90
2018-09-30T14:30:07.389Z,9.38
2018-09-30T14:31:16.968Z,8.50
2018-09-30T14:32:26.636Z,8.75
2018-09-30T14:33:36.490Z,9.25
2018-09-30T14:34:46.306Z,8.65
2018-09-30T14:35:56.005Z,8.73
2018-09-30T14:37:05.909Z,8.83
2018-09-30T14:38:15.550Z,9.23
2018-09-30T14:39:24.946Z,9.20
2018-09-30T14:40:34.741Z,9.93
2018-09-30T14:41:44.576Z,9.65
2018-09-30T14:42:54.431Z,8.95
2018-09-30T14:44:04.046Z,9.50
2018-09-30T14:45:13.753Z,9.03
2018-09-30T14:46:23.445Z,8.53
2018-09-30T14:47:33.077Z,9.55
2018-09-30T14:48:42.813Z,9.00
2018-09-30T14:49:52.502Z,8.33
2018-09-30T14:51:02.295Z,9.35
2018-09-30T14:52:11.977Z,9.73
2018-09-30T14:53:21.852Z,8.50
2018-09-30T14:54:31.501Z,10.18
2018-09-30T14:55:41.218Z,8.80
2018-09-30T14:58:06.820Z,9.25
2018-09-30T14:59:16.501Z,9.13
2018-09-30T15:00:26.148Z,10.05
2018-09-30T15:01:35.900Z,10.48
2018-09-30T15:02:45.767Z,9.50
2018-09-30T15:03:55.630Z,9.38
2018-09-30T15:05:05.395Z,8.98
2018-09-30T15:06:15.333Z,8.33
2018-09-30T15:07:28.561Z,8.20
2018-09-30T15:08:38.315Z,9.33
2018-09-30T15:09:48.009Z,7.85
2018-09-30T15:10:57.713Z,7.22
2018-09-30T15:12:07.550Z,8.33
2018-09-30T15:13:20.904Z,8.80
2018-09-30T15:14:30.522Z,7.87
2018-09-30T15:15:40.140Z,7.55
2018-09-30T15:16:49.969Z,9.53
2018-09-30T15:18:04.985Z,7.60
2018-09-30T15:19:14.613Z,7.45
2018-09-30T15:20:24.498Z,9.15
2018-09-30T15:21:34.204Z,8.10
2018-09-30T15:22:43.633Z,8.20
2018-09-30T15:23:53.365Z,9.38
2018-09-30T15:25:03.181Z,8.45
2018-09-30T15:26:12.726Z,8.20
2018-09-30T15:27:22.363Z,8.63
2018-09-30T15:28:31.965Z,7.92
2018-09-30T15:29:41.493Z,7.50
2018-09-30T15:30:51.542Z,7.90
2018-09-30T15:32:01.133Z,7.75